<?xml version="1.0" encoding="UTF-8" standalone="no" ?><gpx xmlns="http://www.topografix.com/GPX/1/1" xmlns:gpxx="http://www.garmin.com/xmlschemas/GpxExtensions/v3" xmlns:wptx1="http://www.garmin.com/xmlschemas/WaypointExtension/v1" xmlns:gpxtpx="http://www.garmin.com/xmlschemas/TrackPointExtension/v1" creator="GuideVTT.com" version="1.1" xmlns:xsi="http://www.w3.org/2001/XMLSchema-instance" xsi:schemaLocation="http://www.topografix.com/GPX/1/1 http://www.topografix.com/GPX/1/1/gpx.xsd http://www.garmin.com/xmlschemas/GpxExtensions/v3 http://www8.garmin.com/xmlschemas/GpxExtensionsv3.xsd http://www.garmin.com/xmlschemas/WaypointExtension/v1 http://www8.garmin.com/xmlschemas/WaypointExtensionv1.xsd http://www.garmin.com/xmlschemas/TrackPointExtension/v1 http://www.garmin.com/xmlschemas/TrackPointExtensionv1.xsd">
<metadata><link href="http://www.garmin.com"><text>Garmin International</text></link><time>2013-06-22T15:13:50Z</time></metadata>
<trk><name>viville_20080826.gpx</name><extensions><gpxx:TrackExtension><gpxx:DisplayColor>Cyan</gpxx:DisplayColor></gpxx:TrackExtension></extensions><trkseg>
<trkpt lat="49.67767600" lon="5.79688600"><ele>358.228394</ele><time>2008-08-26T13:33:24Z</time></trkpt>
<trkpt lat="49.67755300" lon="5.79694400"><ele>361.593109</ele><time>2008-08-26T13:33:28Z</time></trkpt>
<trkpt lat="49.67752500" lon="5.79695700"><ele>363.515686</ele><time>2008-08-26T13:33:32Z</time></trkpt>
<trkpt lat="49.67727000" lon="5.79632000"><ele>366.880188</ele><time>2008-08-26T13:33:44Z</time></trkpt>
<trkpt lat="49.67684800" lon="5.79519000"><ele>363.035004</ele><time>2008-08-26T13:33:56Z</time></trkpt>
<trkpt lat="49.67640100" lon="5.79405500"><ele>366.399506</ele><time>2008-08-26T13:34:06Z</time></trkpt>
<trkpt lat="49.67631200" lon="5.79384400"><ele>367.360992</ele><time>2008-08-26T13:34:08Z</time></trkpt>
<trkpt lat="49.67556300" lon="5.79255500"><ele>369.283691</ele><time>2008-08-26T13:34:23Z</time></trkpt>
<trkpt lat="49.67525100" lon="5.79217700"><ele>370.725586</ele><time>2008-08-26T13:34:29Z</time></trkpt>
<trkpt lat="49.67524200" lon="5.79191500"><ele>370.244904</ele><time>2008-08-26T13:34:34Z</time></trkpt>
<trkpt lat="49.67592400" lon="5.79071400"><ele>370.725586</ele><time>2008-08-26T13:34:51Z</time></trkpt>
<trkpt lat="49.67636400" lon="5.78945400"><ele>369.764313</ele><time>2008-08-26T13:35:06Z</time></trkpt>
<trkpt lat="49.67680000" lon="5.78791800"><ele>371.68689</ele><time>2008-08-26T13:35:25Z</time></trkpt>
<trkpt lat="49.67706400" lon="5.78662100"><ele>375.051514</ele><time>2008-08-26T13:35:43Z</time></trkpt>
<trkpt lat="49.67735100" lon="5.78567200"><ele>376.974213</ele><time>2008-08-26T13:35:57Z</time></trkpt>
<trkpt lat="49.67763800" lon="5.78517100"><ele>380.338715</ele><time>2008-08-26T13:36:09Z</time></trkpt>
<trkpt lat="49.67796500" lon="5.78451200"><ele>381.299988</ele><time>2008-08-26T13:36:22Z</time></trkpt>
<trkpt lat="49.67802900" lon="5.78369600"><ele>384.184113</ele><time>2008-08-26T13:36:36Z</time></trkpt>
<trkpt lat="49.67823200" lon="5.78277300"><ele>385.145386</ele><time>2008-08-26T13:36:52Z</time></trkpt>
<trkpt lat="49.67845200" lon="5.78223700"><ele>384.664795</ele><time>2008-08-26T13:37:04Z</time></trkpt>
<trkpt lat="49.67877800" lon="5.78151900"><ele>384.664795</ele><time>2008-08-26T13:37:18Z</time></trkpt>
<trkpt lat="49.67876500" lon="5.78122700"><ele>384.664795</ele><time>2008-08-26T13:37:23Z</time></trkpt>
<trkpt lat="49.67879500" lon="5.78106200"><ele>384.664795</ele><time>2008-08-26T13:37:26Z</time></trkpt>
<trkpt lat="49.67884100" lon="5.78080800"><ele>384.664795</ele><time>2008-08-26T13:37:30Z</time></trkpt>
<trkpt lat="49.67937100" lon="5.77981200"><ele>380.819489</ele><time>2008-08-26T13:37:46Z</time></trkpt>
<trkpt lat="49.67943600" lon="5.77967900"><ele>379.858002</ele><time>2008-08-26T13:37:48Z</time></trkpt>
<trkpt lat="49.67955100" lon="5.77942000"><ele>380.338715</ele><time>2008-08-26T13:37:52Z</time></trkpt>
<trkpt lat="49.67983000" lon="5.77801900"><ele>377.935394</ele><time>2008-08-26T13:38:10Z</time></trkpt>
<trkpt lat="49.67984200" lon="5.77774700"><ele>377.454803</ele><time>2008-08-26T13:38:13Z</time></trkpt>
<trkpt lat="49.67989300" lon="5.77674800"><ele>376.4935</ele><time>2008-08-26T13:38:24Z</time></trkpt>
<trkpt lat="49.67992800" lon="5.77648600"><ele>376.4935</ele><time>2008-08-26T13:38:27Z</time></trkpt>
<trkpt lat="49.68002300" lon="5.77564000"><ele>377.454803</ele><time>2008-08-26T13:38:38Z</time></trkpt>
<trkpt lat="49.68001100" lon="5.77549500"><ele>376.4935</ele><time>2008-08-26T13:38:40Z</time></trkpt>
<trkpt lat="49.68011100" lon="5.77536500"><ele>376.012787</ele><time>2008-08-26T13:38:42Z</time></trkpt>
<trkpt lat="49.68022200" lon="5.77493500"><ele>373.609497</ele><time>2008-08-26T13:38:46Z</time></trkpt>
<trkpt lat="49.68019000" lon="5.77464500"><ele>375.532104</ele><time>2008-08-26T13:38:49Z</time></trkpt>
<trkpt lat="49.67996100" lon="5.77297200"><ele>376.974213</ele><time>2008-08-26T13:39:08Z</time></trkpt>
<trkpt lat="49.67979400" lon="5.77197000"><ele>375.532104</ele><time>2008-08-26T13:39:20Z</time></trkpt>
<trkpt lat="49.67986900" lon="5.77161900"><ele>376.012787</ele><time>2008-08-26T13:39:27Z</time></trkpt>
<trkpt lat="49.68094300" lon="5.77104100"><ele>375.051514</ele><time>2008-08-26T13:39:46Z</time></trkpt>
<trkpt lat="49.68219500" lon="5.77066700"><ele>373.128906</ele><time>2008-08-26T13:40:04Z</time></trkpt>
<trkpt lat="49.68276900" lon="5.77068500"><ele>370.244904</ele><time>2008-08-26T13:40:11Z</time></trkpt>
<trkpt lat="49.68318300" lon="5.77071100"><ele>366.880188</ele><time>2008-08-26T13:40:16Z</time></trkpt>
<trkpt lat="49.68326800" lon="5.77071700"><ele>366.880188</ele><time>2008-08-26T13:40:17Z</time></trkpt>
<trkpt lat="49.68437900" lon="5.77041300"><ele>364.957611</ele><time>2008-08-26T13:40:31Z</time></trkpt>
<trkpt lat="49.68588300" lon="5.76948200"><ele>362.554291</ele><time>2008-08-26T13:40:53Z</time></trkpt>
<trkpt lat="49.68620900" lon="5.76921100"><ele>362.554291</ele><time>2008-08-26T13:40:59Z</time></trkpt>
<trkpt lat="49.68658700" lon="5.76899900"><ele>363.515686</ele><time>2008-08-26T13:41:10Z</time></trkpt>
<trkpt lat="49.68658700" lon="5.76899900"><ele>363.996307</ele><time>2008-08-26T13:41:11Z</time></trkpt>
<trkpt lat="49.68669900" lon="5.76908500"><ele>363.996307</ele><time>2008-08-26T13:41:19Z</time></trkpt>
<trkpt lat="49.68686400" lon="5.76894800"><ele>363.515686</ele><time>2008-08-26T13:41:21Z</time></trkpt>
<trkpt lat="49.68766700" lon="5.76908900"><ele>366.880188</ele><time>2008-08-26T13:41:37Z</time></trkpt>
<trkpt lat="49.68817800" lon="5.76932200"><ele>365.438385</ele><time>2008-08-26T13:41:49Z</time></trkpt>
<trkpt lat="49.68875400" lon="5.76941000"><ele>363.515686</ele><time>2008-08-26T13:41:58Z</time></trkpt>
<trkpt lat="49.68896700" lon="5.76936200"><ele>362.554291</ele><time>2008-08-26T13:42:02Z</time></trkpt>
<trkpt lat="49.68914900" lon="5.76925300"><ele>361.593109</ele><time>2008-08-26T13:42:05Z</time></trkpt>
<trkpt lat="49.68959900" lon="5.76909400"><ele>356.786407</ele><time>2008-08-26T13:42:11Z</time></trkpt>
<trkpt lat="49.68968300" lon="5.76907700"><ele>356.786407</ele><time>2008-08-26T13:42:12Z</time></trkpt>
<trkpt lat="49.69037400" lon="5.76893400"><ele>354.8638</ele><time>2008-08-26T13:42:22Z</time></trkpt>
<trkpt lat="49.69080500" lon="5.76882800"><ele>355.344513</ele><time>2008-08-26T13:42:32Z</time></trkpt>
<trkpt lat="49.69119000" lon="5.76872100"><ele>352.941193</ele><time>2008-08-26T13:42:44Z</time></trkpt>
<trkpt lat="49.69171500" lon="5.76851600"><ele>350.537811</ele><time>2008-08-26T13:42:52Z</time></trkpt>
<trkpt lat="49.69245200" lon="5.76819600"><ele>347.173187</ele><time>2008-08-26T13:43:02Z</time></trkpt>
<trkpt lat="49.69289100" lon="5.76783400"><ele>346.692596</ele><time>2008-08-26T13:43:09Z</time></trkpt>
<trkpt lat="49.69313700" lon="5.76777000"><ele>347.6539</ele><time>2008-08-26T13:43:16Z</time></trkpt>
<trkpt lat="49.69315300" lon="5.76771600"><ele>346.692596</ele><time>2008-08-26T13:43:17Z</time></trkpt>
<trkpt lat="49.69330400" lon="5.76747900"><ele>346.692596</ele><time>2008-08-26T13:43:19Z</time></trkpt>
<trkpt lat="49.69352300" lon="5.76747900"><ele>348.134613</ele><time>2008-08-26T13:43:23Z</time></trkpt>
<trkpt lat="49.69383200" lon="5.76747900"><ele>349.576508</ele><time>2008-08-26T13:43:28Z</time></trkpt>
<trkpt lat="49.69423000" lon="5.76747900"><ele>352.941193</ele><time>2008-08-26T13:43:36Z</time></trkpt>
<trkpt lat="49.69432900" lon="5.76747900"><ele>353.902588</ele><time>2008-08-26T13:43:38Z</time></trkpt>
<trkpt lat="49.69472700" lon="5.76747900"><ele>357.26709</ele><time>2008-08-26T13:43:47Z</time></trkpt>
<trkpt lat="49.69522300" lon="5.76747900"><ele>360.631714</ele><time>2008-08-26T13:44:00Z</time></trkpt>
<trkpt lat="49.69577500" lon="5.76747900"><ele>363.996307</ele><time>2008-08-26T13:44:15Z</time></trkpt>
<trkpt lat="49.69613700" lon="5.76744500"><ele>367.360992</ele><time>2008-08-26T13:44:26Z</time></trkpt>
<trkpt lat="49.69663900" lon="5.76695700"><ele>370.244904</ele><time>2008-08-26T13:44:46Z</time></trkpt>
<trkpt lat="49.69727900" lon="5.76667200"><ele>374.090088</ele><time>2008-08-26T13:45:06Z</time></trkpt>
<trkpt lat="49.69767000" lon="5.76618400"><ele>376.974213</ele><time>2008-08-26T13:45:22Z</time></trkpt>
<trkpt lat="49.69806200" lon="5.76577300"><ele>378.896912</ele><time>2008-08-26T13:45:36Z</time></trkpt>
<trkpt lat="49.69846900" lon="5.76546200"><ele>381.780609</ele><time>2008-08-26T13:45:49Z</time></trkpt>
<trkpt lat="49.69888500" lon="5.76544400"><ele>385.145386</ele><time>2008-08-26T13:46:04Z</time></trkpt>
<trkpt lat="49.69918600" lon="5.76543200"><ele>388.029297</ele><time>2008-08-26T13:46:19Z</time></trkpt>
<trkpt lat="49.69947000" lon="5.76572700"><ele>390.913208</ele><time>2008-08-26T13:46:36Z</time></trkpt>
<trkpt lat="49.69944600" lon="5.76612400"><ele>393.797211</ele><time>2008-08-26T13:46:48Z</time></trkpt>
<trkpt lat="49.69944500" lon="5.76664300"><ele>397.642487</ele><time>2008-08-26T13:47:04Z</time></trkpt>
<trkpt lat="49.69950100" lon="5.76698400"><ele>393.797211</ele><time>2008-08-26T13:47:15Z</time></trkpt>
<trkpt lat="49.69950400" lon="5.76700600"><ele>399.565094</ele><time>2008-08-26T13:47:16Z</time></trkpt>
<trkpt lat="49.69954100" lon="5.76721400"><ele>400.526489</ele><time>2008-08-26T13:47:24Z</time></trkpt>
<trkpt lat="49.69961600" lon="5.76764600"><ele>400.526489</ele><time>2008-08-26T13:47:38Z</time></trkpt>
<trkpt lat="49.69963900" lon="5.76807700"><ele>396.681213</ele><time>2008-08-26T13:47:47Z</time></trkpt>
<trkpt lat="49.69965100" lon="5.76830200"><ele>392.835907</ele><time>2008-08-26T13:47:49Z</time></trkpt>
<trkpt lat="49.69965800" lon="5.76843700"><ele>390.432587</ele><time>2008-08-26T13:47:50Z</time></trkpt>
<trkpt lat="49.69963700" lon="5.76908100"><ele>385.145386</ele><time>2008-08-26T13:47:54Z</time></trkpt>
<trkpt lat="49.69962500" lon="5.76938600"><ele>383.703186</ele><time>2008-08-26T13:47:56Z</time></trkpt>
<trkpt lat="49.69958400" lon="5.76985400"><ele>382.742096</ele><time>2008-08-26T13:48:01Z</time></trkpt>
<trkpt lat="49.69955100" lon="5.77008500"><ele>381.780609</ele><time>2008-08-26T13:48:04Z</time></trkpt>
<trkpt lat="49.69948800" lon="5.77052600"><ele>381.299988</ele><time>2008-08-26T13:48:11Z</time></trkpt>
<trkpt lat="49.69961100" lon="5.77061300"><ele>381.299988</ele><time>2008-08-26T13:48:15Z</time></trkpt>
<trkpt lat="49.69987000" lon="5.77079700"><ele>380.819489</ele><time>2008-08-26T13:48:21Z</time></trkpt>
<trkpt lat="49.70026600" lon="5.77107800"><ele>378.416107</ele><time>2008-08-26T13:48:28Z</time></trkpt>
<trkpt lat="49.70051900" lon="5.77125600"><ele>377.454803</ele><time>2008-08-26T13:48:32Z</time></trkpt>
<trkpt lat="49.70128800" lon="5.77135600"><ele>376.974213</ele><time>2008-08-26T13:48:42Z</time></trkpt>
<trkpt lat="49.70218600" lon="5.77168100"><ele>377.935394</ele><time>2008-08-26T13:48:57Z</time></trkpt>
<trkpt lat="49.70282900" lon="5.77197300"><ele>381.299988</ele><time>2008-08-26T13:49:11Z</time></trkpt>
<trkpt lat="49.70288400" lon="5.77208200"><ele>377.935394</ele><time>2008-08-26T13:49:19Z</time></trkpt>
<trkpt lat="49.70288400" lon="5.77208200"><ele>380.338715</ele><time>2008-08-26T13:49:20Z</time></trkpt>
<trkpt lat="49.70288400" lon="5.77208200"><ele>382.742096</ele><time>2008-08-26T13:49:23Z</time></trkpt>
<trkpt lat="49.70289300" lon="5.77210100"><ele>381.299988</ele><time>2008-08-26T13:49:26Z</time></trkpt>
<trkpt lat="49.70313100" lon="5.77257700"><ele>379.858002</ele><time>2008-08-26T13:49:36Z</time></trkpt>
<trkpt lat="49.70333900" lon="5.77299300"><ele>376.974213</ele><time>2008-08-26T13:49:42Z</time></trkpt>
<trkpt lat="49.70374800" lon="5.77380400"><ele>374.570801</ele><time>2008-08-26T13:49:52Z</time></trkpt>
<trkpt lat="49.70455300" lon="5.77495000"><ele>373.128906</ele><time>2008-08-26T13:50:08Z</time></trkpt>
<trkpt lat="49.70484800" lon="5.77537100"><ele>375.532104</ele><time>2008-08-26T13:50:14Z</time></trkpt>
<trkpt lat="49.70516600" lon="5.77585800"><ele>378.896912</ele><time>2008-08-26T13:50:23Z</time></trkpt>
<trkpt lat="49.70515800" lon="5.77639000"><ele>377.935394</ele><time>2008-08-26T13:50:33Z</time></trkpt>
<trkpt lat="49.70494900" lon="5.77681500"><ele>376.012787</ele><time>2008-08-26T13:50:39Z</time></trkpt>
<trkpt lat="49.70497300" lon="5.77724100"><ele>373.609497</ele><time>2008-08-26T13:50:44Z</time></trkpt>
<trkpt lat="49.70500400" lon="5.77789200"><ele>370.725586</ele><time>2008-08-26T13:50:50Z</time></trkpt>
<trkpt lat="49.70477400" lon="5.77851600"><ele>366.880188</ele><time>2008-08-26T13:50:56Z</time></trkpt>
<trkpt lat="49.70464600" lon="5.77900900"><ele>364.476898</ele><time>2008-08-26T13:51:00Z</time></trkpt>
<trkpt lat="49.70450900" lon="5.77967300"><ele>363.035004</ele><time>2008-08-26T13:51:06Z</time></trkpt>
<trkpt lat="49.70452000" lon="5.78017400"><ele>359.67041</ele><time>2008-08-26T13:51:14Z</time></trkpt>
<trkpt lat="49.70463100" lon="5.78024700"><ele>358.709015</ele><time>2008-08-26T13:51:16Z</time></trkpt>
<trkpt lat="49.70474800" lon="5.78032400"><ele>357.747803</ele><time>2008-08-26T13:51:18Z</time></trkpt>
<trkpt lat="49.70554700" lon="5.78084600"><ele>359.67041</ele><time>2008-08-26T13:51:33Z</time></trkpt>
<trkpt lat="49.70657200" lon="5.78164400"><ele>358.228394</ele><time>2008-08-26T13:51:55Z</time></trkpt>
<trkpt lat="49.70666500" lon="5.78173700"><ele>357.747803</ele><time>2008-08-26T13:51:57Z</time></trkpt>
<trkpt lat="49.70689900" lon="5.78197100"><ele>356.786407</ele><time>2008-08-26T13:52:02Z</time></trkpt>
<trkpt lat="49.70710100" lon="5.78227600"><ele>356.786407</ele><time>2008-08-26T13:52:07Z</time></trkpt>
<trkpt lat="49.70730000" lon="5.78268900"><ele>356.786407</ele><time>2008-08-26T13:52:13Z</time></trkpt>
<trkpt lat="49.70732300" lon="5.78292000"><ele>356.305786</ele><time>2008-08-26T13:52:16Z</time></trkpt>
<trkpt lat="49.70736300" lon="5.78331600"><ele>356.786407</ele><time>2008-08-26T13:52:21Z</time></trkpt>
<trkpt lat="49.70748100" lon="5.78362000"><ele>356.305786</ele><time>2008-08-26T13:52:26Z</time></trkpt>
<trkpt lat="49.70767400" lon="5.78370400"><ele>356.786407</ele><time>2008-08-26T13:52:30Z</time></trkpt>
<trkpt lat="49.70809000" lon="5.78388500"><ele>357.26709</ele><time>2008-08-26T13:52:40Z</time></trkpt>
<trkpt lat="49.70845300" lon="5.78404200"><ele>356.786407</ele><time>2008-08-26T13:52:47Z</time></trkpt>
<trkpt lat="49.70918100" lon="5.78427600"><ele>356.786407</ele><time>2008-08-26T13:53:02Z</time></trkpt>
<trkpt lat="49.70956000" lon="5.78441200"><ele>358.228394</ele><time>2008-08-26T13:53:12Z</time></trkpt>
<trkpt lat="49.70980700" lon="5.78466400"><ele>360.151093</ele><time>2008-08-26T13:53:21Z</time></trkpt>
<trkpt lat="49.70991100" lon="5.78488700"><ele>361.593109</ele><time>2008-08-26T13:53:31Z</time></trkpt>
<trkpt lat="49.70999200" lon="5.78524000"><ele>364.476898</ele><time>2008-08-26T13:53:43Z</time></trkpt>
<trkpt lat="49.70999200" lon="5.78524000"><ele>364.957611</ele><time>2008-08-26T13:53:49Z</time></trkpt>
<trkpt lat="49.71005200" lon="5.78550200"><ele>367.841614</ele><time>2008-08-26T13:54:05Z</time></trkpt>
<trkpt lat="49.71005200" lon="5.78550200"><ele>367.841614</ele><time>2008-08-26T13:54:07Z</time></trkpt>
<trkpt lat="49.71012800" lon="5.78584200"><ele>370.244904</ele><time>2008-08-26T13:54:19Z</time></trkpt>
<trkpt lat="49.71012800" lon="5.78584200"><ele>371.206299</ele><time>2008-08-26T13:54:24Z</time></trkpt>
<trkpt lat="49.71019700" lon="5.78614800"><ele>372.167511</ele><time>2008-08-26T13:54:36Z</time></trkpt>
<trkpt lat="49.71021500" lon="5.78623900"><ele>372.648193</ele><time>2008-08-26T13:54:41Z</time></trkpt>
<trkpt lat="49.71021500" lon="5.78623900"><ele>376.012787</ele><time>2008-08-26T13:54:56Z</time></trkpt>
<trkpt lat="49.71021500" lon="5.78623900"><ele>377.935394</ele><time>2008-08-26T13:55:13Z</time></trkpt>
<trkpt lat="49.71021500" lon="5.78623900"><ele>378.416107</ele><time>2008-08-26T13:55:15Z</time></trkpt>
<trkpt lat="49.71008800" lon="5.78670500"><ele>378.896912</ele><time>2008-08-26T13:55:21Z</time></trkpt>
<trkpt lat="49.70971100" lon="5.78677700"><ele>379.858002</ele><time>2008-08-26T13:55:33Z</time></trkpt>
<trkpt lat="49.70938900" lon="5.78705300"><ele>382.261414</ele><time>2008-08-26T13:55:46Z</time></trkpt>
<trkpt lat="49.70901600" lon="5.78737000"><ele>385.626007</ele><time>2008-08-26T13:56:00Z</time></trkpt>
<trkpt lat="49.70848400" lon="5.78781600"><ele>388.51001</ele><time>2008-08-26T13:56:21Z</time></trkpt>
<trkpt lat="49.70796300" lon="5.78825300"><ele>391.393799</ele><time>2008-08-26T13:56:40Z</time></trkpt>
<trkpt lat="49.70733600" lon="5.78856300"><ele>391.393799</ele><time>2008-08-26T13:56:56Z</time></trkpt>
<trkpt lat="49.70631200" lon="5.78895900"><ele>389.471191</ele><time>2008-08-26T13:57:15Z</time></trkpt>
<trkpt lat="49.70520200" lon="5.78956800"><ele>388.990601</ele><time>2008-08-26T13:57:34Z</time></trkpt>
<trkpt lat="49.70495100" lon="5.78971500"><ele>388.51001</ele><time>2008-08-26T13:57:38Z</time></trkpt>
<trkpt lat="49.70383100" lon="5.78977000"><ele>385.145386</ele><time>2008-08-26T13:57:54Z</time></trkpt>
<trkpt lat="49.70262000" lon="5.78959300"><ele>382.261414</ele><time>2008-08-26T13:58:10Z</time></trkpt>
<trkpt lat="49.70169100" lon="5.79023800"><ele>379.858002</ele><time>2008-08-26T13:58:23Z</time></trkpt>
<trkpt lat="49.70141200" lon="5.79049700"><ele>377.454803</ele><time>2008-08-26T13:58:27Z</time></trkpt>
<trkpt lat="49.70112800" lon="5.79084400"><ele>374.570801</ele><time>2008-08-26T13:58:31Z</time></trkpt>
<trkpt lat="49.70091500" lon="5.79115300"><ele>372.648193</ele><time>2008-08-26T13:58:34Z</time></trkpt>
<trkpt lat="49.70071200" lon="5.79150900"><ele>369.283691</ele><time>2008-08-26T13:58:37Z</time></trkpt>
<trkpt lat="49.70036400" lon="5.79213000"><ele>365.918915</ele><time>2008-08-26T13:58:42Z</time></trkpt>
<trkpt lat="49.70029400" lon="5.79225500"><ele>365.918915</ele><time>2008-08-26T13:58:43Z</time></trkpt>
<trkpt lat="49.69956900" lon="5.79354500"><ele>365.438385</ele><time>2008-08-26T13:58:55Z</time></trkpt>
<trkpt lat="49.69887600" lon="5.79403300"><ele>363.996307</ele><time>2008-08-26T13:59:05Z</time></trkpt>
<trkpt lat="49.69810100" lon="5.79452800"><ele>362.0737</ele><time>2008-08-26T13:59:16Z</time></trkpt>
<trkpt lat="49.69789300" lon="5.79481800"><ele>362.554291</ele><time>2008-08-26T13:59:20Z</time></trkpt>
<trkpt lat="49.69713400" lon="5.79545300"><ele>362.0737</ele><time>2008-08-26T13:59:33Z</time></trkpt>
<trkpt lat="49.69695900" lon="5.79572200"><ele>360.631714</ele><time>2008-08-26T13:59:36Z</time></trkpt>
<trkpt lat="49.69660400" lon="5.79647500"><ele>358.228394</ele><time>2008-08-26T13:59:43Z</time></trkpt>
<trkpt lat="49.69576200" lon="5.79789400"><ele>358.709015</ele><time>2008-08-26T13:59:58Z</time></trkpt>
<trkpt lat="49.69524500" lon="5.79900500"><ele>362.0737</ele><time>2008-08-26T14:00:11Z</time></trkpt>
<trkpt lat="49.69503200" lon="5.80011500"><ele>362.0737</ele><time>2008-08-26T14:00:23Z</time></trkpt>
<trkpt lat="49.69474000" lon="5.80056800"><ele>362.554291</ele><time>2008-08-26T14:00:31Z</time></trkpt>
<trkpt lat="49.69441400" lon="5.80095300"><ele>362.0737</ele><time>2008-08-26T14:00:38Z</time></trkpt>
<trkpt lat="49.69416100" lon="5.80124400"><ele>361.593109</ele><time>2008-08-26T14:00:43Z</time></trkpt>
<trkpt lat="49.69341700" lon="5.80203600"><ele>364.957611</ele><time>2008-08-26T14:00:57Z</time></trkpt>
<trkpt lat="49.69306800" lon="5.80237500"><ele>368.322296</ele><time>2008-08-26T14:01:05Z</time></trkpt>
<trkpt lat="49.69260500" lon="5.80282500"><ele>370.725586</ele><time>2008-08-26T14:01:21Z</time></trkpt>
<trkpt lat="49.69223200" lon="5.80317900"><ele>372.648193</ele><time>2008-08-26T14:01:35Z</time></trkpt>
<trkpt lat="49.69193500" lon="5.80264600"><ele>373.609497</ele><time>2008-08-26T14:01:48Z</time></trkpt>
<trkpt lat="49.69138600" lon="5.80166100"><ele>373.609497</ele><time>2008-08-26T14:02:08Z</time></trkpt>
<trkpt lat="49.69094700" lon="5.80087400"><ele>372.648193</ele><time>2008-08-26T14:02:22Z</time></trkpt>
<trkpt lat="49.69084000" lon="5.80068200"><ele>371.206299</ele><time>2008-08-26T14:02:25Z</time></trkpt>
<trkpt lat="49.69068200" lon="5.80095700"><ele>372.648193</ele><time>2008-08-26T14:02:30Z</time></trkpt>
<trkpt lat="49.69063400" lon="5.80115900"><ele>374.090088</ele><time>2008-08-26T14:02:33Z</time></trkpt>
<trkpt lat="49.69041700" lon="5.80165500"><ele>376.4935</ele><time>2008-08-26T14:02:43Z</time></trkpt>
<trkpt lat="49.69037900" lon="5.80166000"><ele>376.012787</ele><time>2008-08-26T14:02:44Z</time></trkpt>
<trkpt lat="49.68937900" lon="5.80180700"><ele>376.4935</ele><time>2008-08-26T14:03:04Z</time></trkpt>
<trkpt lat="49.68850400" lon="5.80154800"><ele>376.974213</ele><time>2008-08-26T14:03:20Z</time></trkpt>
<trkpt lat="49.68748900" lon="5.80084400"><ele>374.090088</ele><time>2008-08-26T14:03:38Z</time></trkpt>
<trkpt lat="49.68701800" lon="5.80065300"><ele>377.454803</ele><time>2008-08-26T14:03:46Z</time></trkpt>
<trkpt lat="49.68690800" lon="5.80071000"><ele>378.896912</ele><time>2008-08-26T14:03:48Z</time></trkpt>
<trkpt lat="49.68680700" lon="5.80077500"><ele>379.858002</ele><time>2008-08-26T14:03:50Z</time></trkpt>
<trkpt lat="49.68665500" lon="5.80087200"><ele>381.299988</ele><time>2008-08-26T14:03:54Z</time></trkpt>
<trkpt lat="49.68655800" lon="5.80093400"><ele>382.742096</ele><time>2008-08-26T14:03:57Z</time></trkpt>
<trkpt lat="49.68629400" lon="5.80144100"><ele>382.261414</ele><time>2008-08-26T14:04:09Z</time></trkpt>
<trkpt lat="49.68626500" lon="5.80150700"><ele>381.299988</ele><time>2008-08-26T14:04:10Z</time></trkpt>
<trkpt lat="49.68612000" lon="5.80212900"><ele>378.416107</ele><time>2008-08-26T14:04:17Z</time></trkpt>
<trkpt lat="49.68607600" lon="5.80235100"><ele>376.4935</ele><time>2008-08-26T14:04:19Z</time></trkpt>
<trkpt lat="49.68575100" lon="5.80260700"><ele>376.4935</ele><time>2008-08-26T14:04:26Z</time></trkpt>
<trkpt lat="49.68568700" lon="5.80233700"><ele>375.051514</ele><time>2008-08-26T14:04:34Z</time></trkpt>
<trkpt lat="49.68562800" lon="5.80163100"><ele>373.128906</ele><time>2008-08-26T14:04:43Z</time></trkpt>
<trkpt lat="49.68557400" lon="5.80100100"><ele>369.764313</ele><time>2008-08-26T14:04:48Z</time></trkpt>
<trkpt lat="49.68555000" lon="5.80071800"><ele>368.803009</ele><time>2008-08-26T14:04:50Z</time></trkpt>
<trkpt lat="49.68553800" lon="5.80057300"><ele>367.360992</ele><time>2008-08-26T14:04:51Z</time></trkpt>
<trkpt lat="49.68551300" lon="5.80028000"><ele>366.399506</ele><time>2008-08-26T14:04:53Z</time></trkpt>
<trkpt lat="49.68553200" lon="5.79996300"><ele>365.438385</ele><time>2008-08-26T14:04:55Z</time></trkpt>
<trkpt lat="49.68599900" lon="5.79818100"><ele>363.515686</ele><time>2008-08-26T14:05:09Z</time></trkpt>
<trkpt lat="49.68618400" lon="5.79747700"><ele>364.957611</ele><time>2008-08-26T14:05:16Z</time></trkpt>
<trkpt lat="49.68611000" lon="5.79647800"><ele>362.554291</ele><time>2008-08-26T14:05:27Z</time></trkpt>
<trkpt lat="49.68602200" lon="5.79528800"><ele>363.515686</ele><time>2008-08-26T14:05:38Z</time></trkpt>
<trkpt lat="49.68594000" lon="5.79490700"><ele>363.515686</ele><time>2008-08-26T14:05:42Z</time></trkpt>
<trkpt lat="49.68586300" lon="5.79463800"><ele>363.996307</ele><time>2008-08-26T14:05:45Z</time></trkpt>
<trkpt lat="49.68581500" lon="5.79412900"><ele>365.438385</ele><time>2008-08-26T14:05:53Z</time></trkpt>
<trkpt lat="49.68575700" lon="5.79412900"><ele>365.438385</ele><time>2008-08-26T14:05:54Z</time></trkpt>
<trkpt lat="49.68458100" lon="5.79416600"><ele>367.360992</ele><time>2008-08-26T14:06:13Z</time></trkpt>
<trkpt lat="49.68429100" lon="5.79420400"><ele>368.322296</ele><time>2008-08-26T14:06:19Z</time></trkpt>
<trkpt lat="49.68408600" lon="5.79396700"><ele>368.322296</ele><time>2008-08-26T14:06:24Z</time></trkpt>
<trkpt lat="49.68400000" lon="5.79353200"><ele>369.764313</ele><time>2008-08-26T14:06:32Z</time></trkpt>
<trkpt lat="49.68393500" lon="5.79332100"><ele>369.283691</ele><time>2008-08-26T14:06:38Z</time></trkpt>
<trkpt lat="49.68372800" lon="5.79264800"><ele>369.283691</ele><time>2008-08-26T14:06:50Z</time></trkpt>
<trkpt lat="49.68354400" lon="5.79227600"><ele>369.283691</ele><time>2008-08-26T14:06:56Z</time></trkpt>
<trkpt lat="49.68344900" lon="5.79211000"><ele>369.764313</ele><time>2008-08-26T14:06:59Z</time></trkpt>
<trkpt lat="49.68326100" lon="5.79177900"><ele>370.725586</ele><time>2008-08-26T14:07:05Z</time></trkpt>
<trkpt lat="49.68304300" lon="5.79139700"><ele>370.725586</ele><time>2008-08-26T14:07:12Z</time></trkpt>
<trkpt lat="49.68271200" lon="5.79081600"><ele>371.68689</ele><time>2008-08-26T14:07:22Z</time></trkpt>
<trkpt lat="49.68242900" lon="5.79031900"><ele>372.648193</ele><time>2008-08-26T14:07:32Z</time></trkpt>
<trkpt lat="49.68193500" lon="5.78945200"><ele>373.128906</ele><time>2008-08-26T14:07:48Z</time></trkpt>
<trkpt lat="49.68156100" lon="5.78885500"><ele>373.609497</ele><time>2008-08-26T14:07:59Z</time></trkpt>
<trkpt lat="49.68142300" lon="5.78865100"><ele>374.090088</ele><time>2008-08-26T14:08:03Z</time></trkpt>
<trkpt lat="49.68135500" lon="5.78855100"><ele>375.051514</ele><time>2008-08-26T14:08:13Z</time></trkpt>
<trkpt lat="49.68135500" lon="5.78855100"><ele>375.051514</ele><time>2008-08-26T14:08:17Z</time></trkpt>
<trkpt lat="49.68123100" lon="5.78836900"><ele>375.532104</ele><time>2008-08-26T14:08:22Z</time></trkpt>
<trkpt lat="49.68105700" lon="5.78811200"><ele>375.532104</ele><time>2008-08-26T14:08:34Z</time></trkpt>
<trkpt lat="49.68089000" lon="5.78793400"><ele>375.051514</ele><time>2008-08-26T14:08:45Z</time></trkpt>
<trkpt lat="49.68058700" lon="5.78763100"><ele>376.012787</ele><time>2008-08-26T14:08:56Z</time></trkpt>
<trkpt lat="49.68022100" lon="5.78726600"><ele>376.4935</ele><time>2008-08-26T14:09:07Z</time></trkpt>
<trkpt lat="49.67976500" lon="5.78680900"><ele>377.935394</ele><time>2008-08-26T14:09:19Z</time></trkpt>
<trkpt lat="49.67935700" lon="5.78640200"><ele>379.858002</ele><time>2008-08-26T14:09:31Z</time></trkpt>
<trkpt lat="49.67924600" lon="5.78629000"><ele>379.377411</ele><time>2008-08-26T14:09:34Z</time></trkpt>
<trkpt lat="49.67904700" lon="5.78611000"><ele>380.338715</ele><time>2008-08-26T14:09:39Z</time></trkpt>
<trkpt lat="49.67888100" lon="5.78599900"><ele>380.819489</ele><time>2008-08-26T14:09:43Z</time></trkpt>
<trkpt lat="49.67826200" lon="5.78558500"><ele>382.261414</ele><time>2008-08-26T14:10:00Z</time></trkpt>
<trkpt lat="49.67779100" lon="5.78526100"><ele>385.626007</ele><time>2008-08-26T14:10:14Z</time></trkpt>
<trkpt lat="49.67753800" lon="5.78534500"><ele>383.703186</ele><time>2008-08-26T14:10:25Z</time></trkpt>
<trkpt lat="49.67735200" lon="5.78567100"><ele>382.742096</ele><time>2008-08-26T14:10:30Z</time></trkpt>
<trkpt lat="49.67717000" lon="5.78598900"><ele>380.819489</ele><time>2008-08-26T14:10:34Z</time></trkpt>
<trkpt lat="49.67681600" lon="5.78785800"><ele>378.896912</ele><time>2008-08-26T14:10:50Z</time></trkpt>
<trkpt lat="49.67618400" lon="5.79005600"><ele>377.454803</ele><time>2008-08-26T14:11:09Z</time></trkpt>
<trkpt lat="49.67570000" lon="5.79110800"><ele>377.935394</ele><time>2008-08-26T14:11:21Z</time></trkpt>
<trkpt lat="49.67515500" lon="5.79206900"><ele>377.935394</ele><time>2008-08-26T14:11:36Z</time></trkpt>
<trkpt lat="49.67515500" lon="5.79206900"><ele>378.416107</ele><time>2008-08-26T14:11:39Z</time></trkpt>
<trkpt lat="49.67523000" lon="5.79215400"><ele>376.974213</ele><time>2008-08-26T14:11:43Z</time></trkpt>
<trkpt lat="49.67593200" lon="5.79312200"><ele>375.532104</ele><time>2008-08-26T14:11:57Z</time></trkpt>
<trkpt lat="49.67660500" lon="5.79453800"><ele>375.051514</ele><time>2008-08-26T14:12:13Z</time></trkpt>
<trkpt lat="49.67718300" lon="5.79609100"><ele>378.416107</ele><time>2008-08-26T14:12:30Z</time></trkpt>
<trkpt lat="49.67747500" lon="5.79685600"><ele>380.819489</ele><time>2008-08-26T14:12:43Z</time></trkpt>
<trkpt lat="49.67764400" lon="5.79690100"><ele>381.299988</ele><time>2008-08-26T14:12:48Z</time></trkpt>
<trkpt lat="49.67834100" lon="5.79657200"><ele>378.896912</ele><time>2008-08-26T14:13:03Z</time></trkpt>
<trkpt lat="49.67891400" lon="5.79630100"><ele>375.532104</ele><time>2008-08-26T14:13:13Z</time></trkpt>
<trkpt lat="49.67897600" lon="5.79627200"><ele>375.532104</ele><time>2008-08-26T14:13:14Z</time></trkpt>
<trkpt lat="49.67930400" lon="5.79614100"><ele>373.609497</ele><time>2008-08-26T14:13:19Z</time></trkpt>
<trkpt lat="49.67954900" lon="5.79609200"><ele>374.570801</ele><time>2008-08-26T14:13:27Z</time></trkpt>
<trkpt lat="49.67954900" lon="5.79609200"><ele>373.609497</ele><time>2008-08-26T14:13:30Z</time></trkpt>
</trkseg></trk></gpx>